• Join FlightAware (Why Join?)
  • Login
  • US Flag 
06:02AM EDT


 

Airport Tracker/Info


-or-


 

Live Flight TrackerFlight Track Log ✈ GJS3706 ✈ 13-May-2013 ✈ KORD - KCVG

Flight Track Log - Related Links

Times and Time Zones

All times are in EDT time to prevent confusion due to time zone crossing. See the GJS3706 flight status page for this flight to view local times or setup timezone preferences in your user account.

Time Position Orientation Groundspeed Altitude Reporting Facility
EDT Latitude Longitude Course Direction KTS MPH feet Rate Location/Type
10:44AM 41.9167 -87.9000 166° South 186 214 3,000  Level Chicago TRACON
10:45AM 41.8036 -87.8664 168° South 260 299 7,300 2,580 Climbing Chicago Center
10:46AM 41.6416 -87.5108 153° Southeast  Level Estimated
10:46AM 41.7294 -87.8092 150° Southeast 303 349 10,100  Level Chicago Center
10:47AM 41.5333 -87.5518 196° South  Level FlightAware Approximate
10:47AM 41.6503 -87.7478 150° Southeast 324 373 12,800  Level Chicago Center
10:48AM 41.4502 -87.4505 180° South  Level Estimated
10:48AM 41.5572 -87.6761 150° Southeast 380 437 14,300  Level Chicago Center
10:49AM 41.3808 -87.3661 166° South  Level Estimated
10:49AM 41.4592 -87.5992 150° Southeast 402 463 16,600  Level Chicago Center
10:50AM 41.3544 -87.5194 150° Southeast 424 488 18,400 1,980 Climbing Chicago Center
10:51AM 41.2247 -87.4203 150° Southeast 444 511 20,800 1,200 Climbing Chicago Center
10:52AM 41.1078 -87.3311 150° Southeast 474 545 21,000 60 Climbing Chicago Center
10:54AM 40.9853 -87.2375 150° Southeast 500 575 21,000  Level Chicago Center
10:55AM 40.8636 -87.1467 151° Southeast 502 578 21,000  Level Chicago Center
10:56AM 40.7425 -87.0556 150° Southeast 502 578 21,000  Level Chicago Center
10:57AM 40.6189 -86.9622 150° Southeast 508 585 21,000  Level Chicago Center
10:58AM 40.4714 -86.8525 150° Southeast 509 586 21,000  Level Chicago Center
10:59AM 40.3494 -86.7611 150° Southeast 508 585 21,000  Level Chicago Center
11:00AM 40.2275 -86.6708 151° Southeast 506 582 21,000  Level Chicago Center
11:01AM 40.1053 -86.5808 151° Southeast 503 579 21,000  Level Indianapolis Center
11:02AM 39.9839 -86.4911 150° Southeast 504 580 21,000  Level Indianapolis Center
11:03AM 39.8622 -86.4022 151° Southeast 505 581 21,000 -420 Level Indianapolis Center
11:03AM 39.8167 -86.3667 149° Southeast 506 582 20,500 -2,100 Descending Indianapolis TRACON
11:04AM 39.7667 -86.2000 111° Southeast 453 521 18,200 -1,920 Descending Indianapolis TRACON
11:05AM 39.7275 -86.1036 118° Southeast 459 528 17,100 -1,680 Descending Indianapolis Center
11:06AM 39.6786 -85.9603 114° Southeast 439 505 15,300 -1,500 Descending Indianapolis Center
11:07AM 39.6306 -85.8172 114° Southeast 433 498 14,000 -1,200 Descending Indianapolis Center
11:08AM 39.5836 -85.6797 114° Southeast 422 486 12,900 -1,440 Descending Indianapolis Center
11:09AM 39.5286 -85.5169 114° Southeast 410 472 11,100 -1,020 Descending Indianapolis Center
11:10AM 39.4681 -85.3944 123° Southeast 400 460 10,900 -60 Descending Indianapolis Center
11:11AM 39.4022 -85.2750 125° Southeast 407 468 11,000  Climbing Indianapolis Center
11:12AM 39.3358 -85.1556 126° Southeast 410 472 11,000  Level Indianapolis Center
11:13AM 39.2717 -85.0369 125° Southeast 406 467 11,000 -60 Level Indianapolis Center
11:14AM 39.2086 -84.9250 126° Southeast 392 451 10,900 -600 Descending Indianapolis Center
11:14AM 39.1833 -84.8667 119° Southeast 325 374 10,200 -1,320 Descending Cincinnati TRACON
11:16AM 39.1167 -84.7833 136° Southeast 297 342 9,000 -1,140 Descending Cincinnati TRACON
11:17AM 39.0500 -84.7833 180° South 264 304 7,900 -1,260 Descending Cincinnati TRACON
11:18AM 38.9667 -84.7833 180° South 262 302 6,500 -1,560 Descending Cincinnati TRACON
11:19AM 38.9167 -84.7667 165° South 227 261 4,800 -1,020 Descending Cincinnati TRACON
11:19AM 38.8719 -84.7583 172° South 242 278 4,900 -1,320 Climbing Indianapolis Center
11:20AM 38.9167 -84.7000 45° Northeast 204 235 3,500 -1,680 Descending Cincinnati TRACON
11:21AM 38.9500 -84.6667 38° Northeast 139 160 2,500 -960 Descending Cincinnati TRACON